Cruise inventory

RV Corystes COR11b/89

Cruise summary report

Cruise Info. 
Ship name (ship code)RV Corystes (74RY)
Cruise identifierCOR11b/89
Cruise period1989-10-12 — 1989-10-19
StatusCompleted
Port of departureSouth Shields, United Kingdom
Port of returnLowestoft, United Kingdom
ObjectivesMake measurements of shear stress and current spectra using the NBVR (Near Bed Velocity Recorder) supported by a sidescan sonar survey. Collect water and sediment samples for a study of scavenging using U/Th disequilibrium data. Work CTD and DRCM anchor stations to determine suspended load and particle size over the tidal cycle. QUISSET deployments for SPM settling velocity measurements.
Chief scientistSteven M Rowlatt (Ministry of Agriculture, Fisheries and Food Burnham Laboratory)
Cruise reportRV Corystes COR11b/89 cruise report co11_89.pdf — access key 'C' (0.27 MB) 
Ocean/sea areas 
GeneralNorth Sea
SpecificN.E. Coast
Track chartsRV Corystes COR11b/89 cruise track — co11_89track.pdf (0.02 MB) 
Measurements 
Physical oceanography 
CTD stationsQuantity: number of stations = 48
Current metersQuantity: number of deployments = 2
Description: Near-bed velocity recorder deployment over a tidal cycle, then redeployed to be recovered on leg d.
Chemical oceanography 
RadioactivityQuantity: number of stations = 5
Description: Thorium measurements in water SPM and sediment
Contamination 
Suspended matterQuantity: number of stations = 5
Geology and geophysics 
Long/short range side scan sonar
Data held at BODC 
Series/Profiles 
48  CTD/STD cast
Vertical spatial coordinates
Salinity of the water column
Temperature of the water column
Vertical spatial coordinates
Salinity of the water column
Temperature of the water column

BODC idDate/TimeLocationDoc.
2460731989-10-15 14:14 55° 1' 41" N  1° 10' 0" W  View metadata report for BODC series reference number 246073
2460851989-10-15 14:39 55° 1' 36" N  1° 8' 6" W  View metadata report for BODC series reference number 246085
2460971989-10-18 07:45 55° 1' 36" N  1° 8' 12" W  View metadata report for BODC series reference number 246097
2461041989-10-18 08:19 55° 1' 12" N  1° 10' 18" W  View metadata report for BODC series reference number 246104
2461161989-10-18 08:59 55° 4' 59" N  1° 14' 5" W  View metadata report for BODC series reference number 246116
2461281989-10-18 09:44 54° 59' 24" N  1° 18' 11" W  View metadata report for BODC series reference number 246128
2461411989-10-18 10:19 54° 58' 41" N  1° 20' 12" W  View metadata report for BODC series reference number 246141
2456231989-10-12 11:52 54° 58' 41" N  1° 20' 41" W  View metadata report for BODC series reference number 245623
2456351989-10-12 12:29 54° 58' 59" N  1° 19' 54" W  View metadata report for BODC series reference number 245635
2456471989-10-12 13:00 54° 59' 12" N  1° 18' 6" W  View metadata report for BODC series reference number 245647
2456591989-10-12 13:32 54° 59' 48" N  1° 16' 18" W  View metadata report for BODC series reference number 245659
2456601989-10-12 14:21 55° 4' 0" N  1° 14' 5" W  View metadata report for BODC series reference number 245660
2456721989-10-12 14:50 55° 7' 0" N  1° 12' 11" W  View metadata report for BODC series reference number 245672
2456841989-10-12 15:19 55° 1' 5" N  1° 10' 5" W  View metadata report for BODC series reference number 245684
2456961989-10-12 15:48 55° 1' 36" N  1° 8' 12" W  View metadata report for BODC series reference number 245696
2457031989-10-13 08:27 55° 2' 59" N  1° 14' 12" W  View metadata report for BODC series reference number 245703
2457151989-10-13 11:55 54° 59' 41" N  1° 16' 54" W  View metadata report for BODC series reference number 245715
2457271989-10-13 13:51 54° 59' 17" N  1° 17' 17" W  View metadata report for BODC series reference number 245727
2457391989-10-13 15:23 54° 59' 12" N  1° 18' 42" W  View metadata report for BODC series reference number 245739
2457401989-10-13 19:35 54° 59' 5" N  1° 20' 41" W  View metadata report for BODC series reference number 245740
2457521989-10-14 11:51 54° 59' 5" N  1° 20' 35" W  View metadata report for BODC series reference number 245752
2457641989-10-14 12:32 54° 59' 5" N  1° 20' 35" W  View metadata report for BODC series reference number 245764
2457761989-10-14 13:30 54° 58' 59" N  1° 20' 35" W  View metadata report for BODC series reference number 245776
2457881989-10-14 14:31 54° 58' 59" N  1° 20' 35" W  View metadata report for BODC series reference number 245788
2458071989-10-14 15:49 54° 58' 59" N  1° 20' 35" W  View metadata report for BODC series reference number 245807
2458191989-10-14 16:31 54° 58' 59" N  1° 20' 35" W  View metadata report for BODC series reference number 245819
2458201989-10-14 17:31 54° 59' 5" N  1° 20' 30" W  View metadata report for BODC series reference number 245820
2458321989-10-14 18:31 54° 59' 5" N  1° 20' 30" W  View metadata report for BODC series reference number 245832
2458441989-10-14 19:30 54° 59' 5" N  1° 20' 41" W  View metadata report for BODC series reference number 245844
2458561989-10-14 20:31 54° 59' 5" N  1° 20' 41" W  View metadata report for BODC series reference number 245856
2458681989-10-14 21:30 54° 59' 17" N  1° 20' 24" W  View metadata report for BODC series reference number 245868
2458811989-10-14 22:31 54° 59' 5" N  1° 20' 17" W  View metadata report for BODC series reference number 245881
2458931989-10-14 23:30 54° 58' 59" N  1° 20' 30" W  View metadata report for BODC series reference number 245893
2459001989-10-15 00:30 54° 59' 5" N  1° 20' 35" W  View metadata report for BODC series reference number 245900
2459121989-10-15 01:30 54° 59' 5" N  1° 20' 35" W  View metadata report for BODC series reference number 245912
2459241989-10-15 02:31 54° 58' 59" N  1° 20' 41" W  View metadata report for BODC series reference number 245924
2459361989-10-15 03:31 54° 59' 41" N  1° 20' 30" W  View metadata report for BODC series reference number 245936
2459481989-10-15 04:30 54° 59' 5" N  1° 20' 24" W  View metadata report for BODC series reference number 245948
2459611989-10-15 05:31 54° 59' 5" N  1° 20' 24" W  View metadata report for BODC series reference number 245961
2459731989-10-15 06:32 54° 59' 5" N  1° 20' 30" W  View metadata report for BODC series reference number 245973
2459851989-10-15 07:32 54° 59' 5" N  1° 20' 35" W  View metadata report for BODC series reference number 245985
2459971989-10-15 08:32 54° 59' 5" N  1° 20' 35" W  View metadata report for BODC series reference number 245997
2460001989-10-15 09:31 54° 59' 5" N  1° 20' 35" W  View metadata report for BODC series reference number 246000
2460121989-10-15 10:33 54° 59' 5" N  1° 20' 35" W  View metadata report for BODC series reference number 246012
2460241989-10-15 11:29 54° 59' 5" N  1° 20' 41" W  View metadata report for BODC series reference number 246024
2460361989-10-15 12:45 54° 58' 47" N  1° 20' 30" W  View metadata report for BODC series reference number 246036
2460481989-10-15 13:10 54° 59' 17" N  1° 17' 53" W  View metadata report for BODC series reference number 246048
2460611989-10-15 13:44 55° 4' 0" N  1° 13' 47" W  View metadata report for BODC series reference number 246061